sensor_id;sensor_type;location;lat;lon;timestamp;P1;durP1;ratioP1;P2;durP2;ratioP2
20093;SDS011;10206;48.012;10.030;2024-01-30T00:02:13;11.47;;;6.13;;
20093;SDS011;10206;48.012;10.030;2024-01-30T00:04:40;12.53;;;6.80;;
20093;SDS011;10206;48.012;10.030;2024-01-30T00:07:06;11.37;;;6.40;;
20093;SDS011;10206;48.012;10.030;2024-01-30T00:09:32;9.97;;;5.43;;
20093;SDS011;10206;48.012;10.030;2024-01-30T00:11:58;8.77;;;5.70;;
20093;SDS011;10206;48.012;10.030;2024-01-30T00:14:24;10.33;;;6.27;;
20093;SDS011;10206;48.012;10.030;2024-01-30T00:16:51;9.37;;;5.87;;
20093;SDS011;10206;48.012;10.030;2024-01-30T00:19:17;11.47;;;5.83;;
20093;SDS011;10206;48.012;10.030;2024-01-30T00:21:43;11.87;;;6.70;;
20093;SDS011;10206;48.012;10.030;2024-01-30T00:24:09;9.23;;;5.10;;
20093;SDS011;10206;48.012;10.030;2024-01-30T00:26:35;10.27;;;5.23;;
20093;SDS011;10206;48.012;10.030;2024-01-30T00:29:02;9.17;;;5.30;;
20093;SDS011;10206;48.012;10.030;2024-01-30T00:31:28;6.77;;;4.70;;
20093;SDS011;10206;48.012;10.030;2024-01-30T00:33:54;7.20;;;4.43;;
20093;SDS011;10206;48.012;10.030;2024-01-30T00:36:20;6.87;;;4.07;;
20093;SDS011;10206;48.012;10.030;2024-01-30T00:38:47;6.10;;;4.57;;
20093;SDS011;10206;48.012;10.030;2024-01-30T00:41:13;5.30;;;3.90;;
20093;SDS011;10206;48.012;10.030;2024-01-30T00:43:39;5.87;;;4.07;;
20093;SDS011;10206;48.012;10.030;2024-01-30T00:46:05;5.97;;;3.90;;
20093;SDS011;10206;48.012;10.030;2024-01-30T00:48:31;5.93;;;3.93;;
20093;SDS011;10206;48.012;10.030;2024-01-30T00:50:57;6.00;;;4.30;;
20093;SDS011;10206;48.012;10.030;2024-01-30T00:53:24;6.50;;;4.40;;
20093;SDS011;10206;48.012;10.030;2024-01-30T00:55:51;5.07;;;3.90;;
20093;SDS011;10206;48.012;10.030;2024-01-30T00:58:17;6.37;;;3.97;;
20093;SDS011;10206;48.012;10.030;2024-01-30T01:00:44;5.07;;;4.00;;
20093;SDS011;10206;48.012;10.030;2024-01-30T01:03:10;5.97;;;4.03;;
20093;SDS011;10206;48.012;10.030;2024-01-30T01:05:36;6.83;;;4.60;;
20093;SDS011;10206;48.012;10.030;2024-01-30T01:08:02;9.30;;;4.23;;
20093;SDS011;10206;48.012;10.030;2024-01-30T01:10:29;4.97;;;3.70;;
20093;SDS011;10206;48.012;10.030;2024-01-30T01:12:55;8.13;;;4.00;;
20093;SDS011;10206;48.012;10.030;2024-01-30T01:15:21;7.13;;;4.30;;
20093;SDS011;10206;48.012;10.030;2024-01-30T01:17:47;5.60;;;3.67;;
20093;SDS011;10206;48.012;10.030;2024-01-30T01:20:13;6.07;;;3.60;;
20093;SDS011;10206;48.012;10.030;2024-01-30T01:22:40;7.43;;;3.60;;
20093;SDS011;10206;48.012;10.030;2024-01-30T01:25:06;6.77;;;3.90;;
20093;SDS011;10206;48.012;10.030;2024-01-30T01:27:33;4.47;;;3.27;;
20093;SDS011;10206;48.012;10.030;2024-01-30T01:30:03;6.93;;;3.87;;
20093;SDS011;10206;48.012;10.030;2024-01-30T01:32:30;5.93;;;3.90;;
20093;SDS011;10206;48.012;10.030;2024-01-30T01:34:57;7.13;;;4.10;;
20093;SDS011;10206;48.012;10.030;2024-01-30T01:37:23;5.53;;;3.77;;
20093;SDS011;10206;48.012;10.030;2024-01-30T01:39:51;6.03;;;3.80;;
20093;SDS011;10206;48.012;10.030;2024-01-30T01:42:17;5.20;;;3.67;;
20093;SDS011;10206;48.012;10.030;2024-01-30T01:44:43;5.40;;;3.53;;
20093;SDS011;10206;48.012;10.030;2024-01-30T01:47:09;4.93;;;3.80;;
20093;SDS011;10206;48.012;10.030;2024-01-30T01:49:36;4.80;;;3.80;;
20093;SDS011;10206;48.012;10.030;2024-01-30T01:52:03;5.07;;;3.60;;
20093;SDS011;10206;48.012;10.030;2024-01-30T01:54:29;5.10;;;3.37;;
20093;SDS011;10206;48.012;10.030;2024-01-30T01:56:56;5.23;;;3.80;;
20093;SDS011;10206;48.012;10.030;2024-01-30T01:59:22;6.23;;;4.17;;
20093;SDS011;10206;48.012;10.030;2024-01-30T02:01:49;6.37;;;4.73;;
20093;SDS011;10206;48.012;10.030;2024-01-30T02:04:18;7.57;;;5.00;;
20093;SDS011;10206;48.012;10.030;2024-01-30T02:06:44;6.97;;;4.67;;
20093;SDS011;10206;48.012;10.030;2024-01-30T02:09:10;9.37;;;4.30;;
20093;SDS011;10206;48.012;10.030;2024-01-30T02:11:37;7.93;;;4.23;;
20093;SDS011;10206;48.012;10.030;2024-01-30T02:14:03;5.47;;;3.60;;
20093;SDS011;10206;48.012;10.030;2024-01-30T02:16:30;8.77;;;4.50;;
20093;SDS011;10206;48.012;10.030;2024-01-30T02:18:56;8.37;;;4.80;;
20093;SDS011;10206;48.012;10.030;2024-01-30T02:21:22;6.93;;;4.63;;
20093;SDS011;10206;48.012;10.030;2024-01-30T02:23:49;6.87;;;4.37;;
20093;SDS011;10206;48.012;10.030;2024-01-30T02:26:17;7.23;;;4.77;;
20093;SDS011;10206;48.012;10.030;2024-01-30T02:28:43;7.67;;;4.87;;
20093;SDS011;10206;48.012;10.030;2024-01-30T02:31:09;8.67;;;4.80;;
20093;SDS011;10206;48.012;10.030;2024-01-30T02:33:35;6.80;;;4.57;;
20093;SDS011;10206;48.012;10.030;2024-01-30T02:36:02;8.63;;;5.20;;
20093;SDS011;10206;48.012;10.030;2024-01-30T02:38:28;11.50;;;5.33;;
20093;SDS011;10206;48.012;10.030;2024-01-30T02:40:54;7.17;;;5.03;;
20093;SDS011;10206;48.012;10.030;2024-01-30T02:43:21;6.90;;;4.60;;
20093;SDS011;10206;48.012;10.030;2024-01-30T02:45:47;6.20;;;4.73;;
20093;SDS011;10206;48.012;10.030;2024-01-30T02:48:13;6.67;;;4.33;;
20093;SDS011;10206;48.012;10.030;2024-01-30T02:50:39;9.13;;;4.97;;
20093;SDS011;10206;48.012;10.030;2024-01-30T02:53:05;9.97;;;4.97;;
20093;SDS011;10206;48.012;10.030;2024-01-30T02:55:32;7.30;;;4.37;;
20093;SDS011;10206;48.012;10.030;2024-01-30T02:57:58;9.00;;;4.97;;
20093;SDS011;10206;48.012;10.030;2024-01-30T03:00:24;6.50;;;4.40;;
20093;SDS011;10206;48.012;10.030;2024-01-30T03:02:51;6.40;;;4.13;;
20093;SDS011;10206;48.012;10.030;2024-01-30T03:05:17;8.00;;;5.30;;
20093;SDS011;10206;48.012;10.030;2024-01-30T03:07:43;8.87;;;5.00;;
20093;SDS011;10206;48.012;10.030;2024-01-30T03:10:09;9.90;;;4.97;;
20093;SDS011;10206;48.012;10.030;2024-01-30T03:12:35;7.73;;;5.23;;
20093;SDS011;10206;48.012;10.030;2024-01-30T03:15:01;10.77;;;5.80;;
20093;SDS011;10206;48.012;10.030;2024-01-30T03:17:27;8.60;;;5.60;;
20093;SDS011;10206;48.012;10.030;2024-01-30T03:19:53;9.57;;;5.63;;
20093;SDS011;10206;48.012;10.030;2024-01-30T03:22:19;10.30;;;6.30;;
20093;SDS011;10206;48.012;10.030;2024-01-30T03:24:45;10.13;;;6.53;;
20093;SDS011;10206;48.012;10.030;2024-01-30T03:27:11;11.50;;;7.00;;
20093;SDS011;10206;48.012;10.030;2024-01-30T03:29:37;12.90;;;8.60;;
20093;SDS011;10206;48.012;10.030;2024-01-30T03:32:04;14.33;;;8.97;;
20093;SDS011;10206;48.012;10.030;2024-01-30T03:34:30;18.33;;;11.87;;
20093;SDS011;10206;48.012;10.030;2024-01-30T03:36:56;19.90;;;12.23;;
20093;SDS011;10206;48.012;10.030;2024-01-30T03:39:22;21.43;;;13.30;;
20093;SDS011;10206;48.012;10.030;2024-01-30T03:41:48;25.93;;;14.90;;
20093;SDS011;10206;48.012;10.030;2024-01-30T03:44:14;25.40;;;13.63;;
20093;SDS011;10206;48.012;10.030;2024-01-30T03:46:41;21.43;;;11.23;;
20093;SDS011;10206;48.012;10.030;2024-01-30T03:49:07;13.50;;;8.07;;
20093;SDS011;10206;48.012;10.030;2024-01-30T03:51:34;13.93;;;7.30;;
20093;SDS011;10206;48.012;10.030;2024-01-30T03:54:00;11.47;;;6.33;;
20093;SDS011;10206;48.012;10.030;2024-01-30T03:56:26;14.07;;;6.67;;
20093;SDS011;10206;48.012;10.030;2024-01-30T03:58:52;9.67;;;5.87;;
20093;SDS011;10206;48.012;10.030;2024-01-30T04:01:18;13.43;;;7.47;;
20093;SDS011;10206;48.012;10.030;2024-01-30T04:03:44;12.20;;;7.30;;
20093;SDS011;10206;48.012;10.030;2024-01-30T04:06:11;10.33;;;6.80;;
20093;SDS011;10206;48.012;10.030;2024-01-30T04:08:37;8.30;;;5.80;;
20093;SDS011;10206;48.012;10.030;2024-01-30T04:11:04;9.57;;;6.20;;
20093;SDS011;10206;48.012;10.030;2024-01-30T04:13:30;9.53;;;6.23;;
20093;SDS011;10206;48.012;10.030;2024-01-30T04:15:58;9.87;;;6.70;;
20093;SDS011;10206;48.012;10.030;2024-01-30T04:18:26;10.03;;;7.13;;
20093;SDS011;10206;48.012;10.030;2024-01-30T04:20:52;8.67;;;6.60;;
20093;SDS011;10206;48.012;10.030;2024-01-30T04:23:18;9.63;;;5.97;;
20093;SDS011;10206;48.012;10.030;2024-01-30T04:25:44;8.57;;;5.73;;
20093;SDS011;10206;48.012;10.030;2024-01-30T04:28:11;8.70;;;5.97;;
20093;SDS011;10206;48.012;10.030;2024-01-30T04:30:37;8.53;;;5.40;;
20093;SDS011;10206;48.012;10.030;2024-01-30T04:33:03;9.43;;;5.90;;
20093;SDS011;10206;48.012;10.030;2024-01-30T04:35:30;8.73;;;6.33;;
20093;SDS011;10206;48.012;10.030;2024-01-30T04:37:56;9.03;;;5.57;;
20093;SDS011;10206;48.012;10.030;2024-01-30T04:40:22;7.53;;;5.27;;
20093;SDS011;10206;48.012;10.030;2024-01-30T04:42:48;12.10;;;6.00;;
20093;SDS011;10206;48.012;10.030;2024-01-30T04:45:14;10.50;;;6.90;;
20093;SDS011;10206;48.012;10.030;2024-01-30T04:47:40;10.30;;;6.73;;
20093;SDS011;10206;48.012;10.030;2024-01-30T04:50:07;10.00;;;5.93;;
20093;SDS011;10206;48.012;10.030;2024-01-30T04:52:33;8.93;;;6.00;;
20093;SDS011;10206;48.012;10.030;2024-01-30T04:55:00;9.73;;;5.80;;
20093;SDS011;10206;48.012;10.030;2024-01-30T04:57:26;11.70;;;5.93;;
20093;SDS011;10206;48.012;10.030;2024-01-30T04:59:53;13.07;;;8.67;;
20093;SDS011;10206;48.012;10.030;2024-01-30T05:02:19;12.63;;;9.13;;
20093;SDS011;10206;48.012;10.030;2024-01-30T05:04:45;23.57;;;13.10;;
20093;SDS011;10206;48.012;10.030;2024-01-30T05:07:11;20.93;;;11.47;;
20093;SDS011;10206;48.012;10.030;2024-01-30T05:09:37;11.87;;;6.83;;
20093;SDS011;10206;48.012;10.030;2024-01-30T05:12:03;14.83;;;9.13;;
20093;SDS011;10206;48.012;10.030;2024-01-30T05:14:29;52.53;;;27.17;;
20093;SDS011;10206;48.012;10.030;2024-01-30T05:16:55;51.23;;;25.23;;
20093;SDS011;10206;48.012;10.030;2024-01-30T05:19:22;59.93;;;30.23;;
20093;SDS011;10206;48.012;10.030;2024-01-30T05:21:48;44.47;;;23.53;;
20093;SDS011;10206;48.012;10.030;2024-01-30T05:24:15;48.13;;;25.10;;
20093;SDS011;10206;48.012;10.030;2024-01-30T05:26:41;57.97;;;31.57;;
20093;SDS011;10206;48.012;10.030;2024-01-30T05:29:07;52.23;;;28.20;;
20093;SDS011;10206;48.012;10.030;2024-01-30T05:31:33;61.63;;;31.77;;
20093;SDS011;10206;48.012;10.030;2024-01-30T05:34:00;63.77;;;31.03;;
20093;SDS011;10206;48.012;10.030;2024-01-30T05:36:26;49.03;;;25.93;;
20093;SDS011;10206;48.012;10.030;2024-01-30T05:38:52;25.47;;;13.70;;
20093;SDS011;10206;48.012;10.030;2024-01-30T05:41:19;27.43;;;14.00;;
20093;SDS011;10206;48.012;10.030;2024-01-30T05:43:46;24.70;;;13.27;;
20093;SDS011;10206;48.012;10.030;2024-01-30T05:46:12;26.53;;;13.80;;
20093;SDS011;10206;48.012;10.030;2024-01-30T05:48:38;27.10;;;13.13;;
20093;SDS011;10206;48.012;10.030;2024-01-30T05:51:04;30.57;;;16.37;;
20093;SDS011;10206;48.012;10.030;2024-01-30T05:53:32;37.87;;;18.83;;
20093;SDS011;10206;48.012;10.030;2024-01-30T05:55:59;108.77;;;50.07;;
20093;SDS011;10206;48.012;10.030;2024-01-30T05:58:29;178.47;;;79.93;;
20093;SDS011;10206;48.012;10.030;2024-01-30T06:00:56;191.03;;;89.57;;
20093;SDS011;10206;48.012;10.030;2024-01-30T06:03:23;112.70;;;52.73;;
20093;SDS011;10206;48.012;10.030;2024-01-30T06:05:49;84.87;;;38.60;;
20093;SDS011;10206;48.012;10.030;2024-01-30T06:08:15;43.87;;;17.20;;
20093;SDS011;10206;48.012;10.030;2024-01-30T06:10:42;48.10;;;19.43;;
20093;SDS011;10206;48.012;10.030;2024-01-30T06:13:08;36.13;;;15.83;;
20093;SDS011;10206;48.012;10.030;2024-01-30T06:15:34;27.33;;;12.33;;
20093;SDS011;10206;48.012;10.030;2024-01-30T06:18:00;24.03;;;11.07;;
20093;SDS011;10206;48.012;10.030;2024-01-30T06:20:26;16.83;;;8.17;;
20093;SDS011;10206;48.012;10.030;2024-01-30T06:22:52;12.57;;;7.10;;
20093;SDS011;10206;48.012;10.030;2024-01-30T06:25:18;11.27;;;7.17;;
20093;SDS011;10206;48.012;10.030;2024-01-30T06:27:44;11.43;;;6.77;;
20093;SDS011;10206;48.012;10.030;2024-01-30T06:30:11;15.23;;;7.37;;
20093;SDS011;10206;48.012;10.030;2024-01-30T06:32:37;12.83;;;6.73;;
20093;SDS011;10206;48.012;10.030;2024-01-30T06:35:03;12.93;;;7.47;;
20093;SDS011;10206;48.012;10.030;2024-01-30T06:37:30;14.33;;;7.73;;
20093;SDS011;10206;48.012;10.030;2024-01-30T06:39:57;12.53;;;7.73;;
20093;SDS011;10206;48.012;10.030;2024-01-30T06:42:23;13.97;;;7.90;;
20093;SDS011;10206;48.012;10.030;2024-01-30T06:44:49;14.67;;;7.57;;
20093;SDS011;10206;48.012;10.030;2024-01-30T06:47:15;12.27;;;7.77;;
20093;SDS011;10206;48.012;10.030;2024-01-30T06:49:41;15.93;;;7.77;;
20093;SDS011;10206;48.012;10.030;2024-01-30T06:52:08;15.80;;;8.33;;
20093;SDS011;10206;48.012;10.030;2024-01-30T06:54:35;14.33;;;7.97;;
20093;SDS011;10206;48.012;10.030;2024-01-30T06:57:01;13.93;;;7.77;;
20093;SDS011;10206;48.012;10.030;2024-01-30T06:59:28;14.10;;;7.80;;
20093;SDS011;10206;48.012;10.030;2024-01-30T07:01:54;14.20;;;7.13;;
20093;SDS011;10206;48.012;10.030;2024-01-30T07:04:20;12.93;;;7.50;;
20093;SDS011;10206;48.012;10.030;2024-01-30T07:06:46;10.33;;;6.70;;
20093;SDS011;10206;48.012;10.030;2024-01-30T07:09:12;12.10;;;7.70;;
20093;SDS011;10206;48.012;10.030;2024-01-30T07:11:38;10.00;;;6.17;;
20093;SDS011;10206;48.012;10.030;2024-01-30T07:14:04;11.17;;;6.33;;
20093;SDS011;10206;48.012;10.030;2024-01-30T07:16:31;9.30;;;6.00;;
20093;SDS011;10206;48.012;10.030;2024-01-30T07:18:57;11.07;;;5.87;;
20093;SDS011;10206;48.012;10.030;2024-01-30T07:21:23;9.37;;;5.80;;
20093;SDS011;10206;48.012;10.030;2024-01-30T07:23:53;7.47;;;5.37;;
20093;SDS011;10206;48.012;10.030;2024-01-30T07:26:20;9.07;;;4.97;;
20093;SDS011;10206;48.012;10.030;2024-01-30T07:28:46;9.77;;;5.30;;
20093;SDS011;10206;48.012;10.030;2024-01-30T07:31:12;11.87;;;5.57;;
20093;SDS011;10206;48.012;10.030;2024-01-30T07:33:38;13.80;;;6.73;;
20093;SDS011;10206;48.012;10.030;2024-01-30T07:36:05;15.17;;;7.70;;
20093;SDS011;10206;48.012;10.030;2024-01-30T07:38:31;14.60;;;8.10;;
20093;SDS011;10206;48.012;10.030;2024-01-30T07:40:57;13.33;;;7.03;;
20093;SDS011;10206;48.012;10.030;2024-01-30T07:43:23;12.00;;;7.20;;
20093;SDS011;10206;48.012;10.030;2024-01-30T07:45:50;11.73;;;7.63;;
20093;SDS011;10206;48.012;10.030;2024-01-30T07:48:16;12.50;;;7.00;;
20093;SDS011;10206;48.012;10.030;2024-01-30T07:50:42;12.63;;;7.90;;
20093;SDS011;10206;48.012;10.030;2024-01-30T07:53:08;13.73;;;8.40;;
20093;SDS011;10206;48.012;10.030;2024-01-30T07:55:34;12.50;;;7.37;;
20093;SDS011;10206;48.012;10.030;2024-01-30T07:58:00;11.17;;;6.77;;
20093;SDS011;10206;48.012;10.030;2024-01-30T08:00:26;10.10;;;6.80;;
20093;SDS011;10206;48.012;10.030;2024-01-30T08:02:54;9.43;;;6.43;;
20093;SDS011;10206;48.012;10.030;2024-01-30T08:05:20;9.60;;;6.97;;
20093;SDS011;10206;48.012;10.030;2024-01-30T08:07:48;9.20;;;6.20;;
20093;SDS011;10206;48.012;10.030;2024-01-30T08:10:14;15.33;;;7.80;;
20093;SDS011;10206;48.012;10.030;2024-01-30T08:12:41;14.93;;;8.00;;
20093;SDS011;10206;48.012;10.030;2024-01-30T08:15:07;9.50;;;6.10;;
20093;SDS011;10206;48.012;10.030;2024-01-30T08:17:33;10.43;;;7.37;;
20093;SDS011;10206;48.012;10.030;2024-01-30T08:19:59;9.73;;;6.80;;
20093;SDS011;10206;48.012;10.030;2024-01-30T08:22:25;8.60;;;5.70;;
20093;SDS011;10206;48.012;10.030;2024-01-30T08:24:52;9.63;;;5.73;;
20093;SDS011;10206;48.012;10.030;2024-01-30T08:27:18;7.97;;;5.60;;
20093;SDS011;10206;48.012;10.030;2024-01-30T08:29:44;8.97;;;5.53;;
20093;SDS011;10206;48.012;10.030;2024-01-30T08:32:11;8.30;;;5.23;;
20093;SDS011;10206;48.012;10.030;2024-01-30T08:34:37;6.97;;;5.40;;
20093;SDS011;10206;48.012;10.030;2024-01-30T08:37:03;15.50;;;9.70;;
20093;SDS011;10206;48.012;10.030;2024-01-30T08:39:29;9.47;;;6.07;;
20093;SDS011;10206;48.012;10.030;2024-01-30T08:41:56;8.17;;;5.97;;
20093;SDS011;10206;48.012;10.030;2024-01-30T08:44:22;8.03;;;5.77;;
20093;SDS011;10206;48.012;10.030;2024-01-30T08:46:49;17.77;;;10.03;;
20093;SDS011;10206;48.012;10.030;2024-01-30T08:49:19;39.50;;;20.67;;
20093;SDS011;10206;48.012;10.030;2024-01-30T08:51:45;27.83;;;14.90;;
20093;SDS011;10206;48.012;10.030;2024-01-30T08:54:12;28.17;;;16.13;;
20093;SDS011;10206;48.012;10.030;2024-01-30T08:56:38;19.27;;;9.90;;
20093;SDS011;10206;48.012;10.030;2024-01-30T08:59:04;13.60;;;7.90;;
20093;SDS011;10206;48.012;10.030;2024-01-30T09:01:30;13.43;;;8.13;;
20093;SDS011;10206;48.012;10.030;2024-01-30T09:03:56;8.80;;;5.67;;
20093;SDS011;10206;48.012;10.030;2024-01-30T09:06:22;6.27;;;4.43;;
20093;SDS011;10206;48.012;10.030;2024-01-30T09:08:53;8.50;;;4.87;;
20093;SDS011;10206;48.012;10.030;2024-01-30T09:11:19;9.57;;;6.43;;
20093;SDS011;10206;48.012;10.030;2024-01-30T09:13:45;24.23;;;12.17;;
20093;SDS011;10206;48.012;10.030;2024-01-30T09:16:11;29.23;;;14.27;;
20093;SDS011;10206;48.012;10.030;2024-01-30T09:18:37;13.47;;;7.53;;
20093;SDS011;10206;48.012;10.030;2024-01-30T09:21:04;17.20;;;8.97;;
20093;SDS011;10206;48.012;10.030;2024-01-30T09:23:30;11.73;;;6.67;;
20093;SDS011;10206;48.012;10.030;2024-01-30T09:25:56;8.57;;;4.80;;
20093;SDS011;10206;48.012;10.030;2024-01-30T09:28:22;11.83;;;5.83;;
20093;SDS011;10206;48.012;10.030;2024-01-30T09:30:48;7.37;;;5.00;;
20093;SDS011;10206;48.012;10.030;2024-01-30T09:33:14;7.30;;;4.87;;
20093;SDS011;10206;48.012;10.030;2024-01-30T09:35:41;9.17;;;4.60;;
20093;SDS011;10206;48.012;10.030;2024-01-30T09:38:07;8.93;;;5.27;;
20093;SDS011;10206;48.012;10.030;2024-01-30T09:40:33;6.60;;;4.60;;
20093;SDS011;10206;48.012;10.030;2024-01-30T09:42:59;8.93;;;4.93;;
20093;SDS011;10206;48.012;10.030;2024-01-30T09:45:25;10.20;;;4.90;;
20093;SDS011;10206;48.012;10.030;2024-01-30T09:47:52;6.87;;;4.77;;
20093;SDS011;10206;48.012;10.030;2024-01-30T09:50:19;7.00;;;4.73;;
20093;SDS011;10206;48.012;10.030;2024-01-30T09:52:45;7.13;;;4.90;;
20093;SDS011;10206;48.012;10.030;2024-01-30T09:55:12;8.57;;;5.97;;
20093;SDS011;10206;48.012;10.030;2024-01-30T09:57:39;10.93;;;6.10;;
20093;SDS011;10206;48.012;10.030;2024-01-30T10:00:06;11.43;;;6.30;;
20093;SDS011;10206;48.012;10.030;2024-01-30T10:02:34;9.13;;;5.90;;
20093;SDS011;10206;48.012;10.030;2024-01-30T10:05:00;10.90;;;6.20;;
20093;SDS011;10206;48.012;10.030;2024-01-30T10:07:27;9.20;;;6.20;;
20093;SDS011;10206;48.012;10.030;2024-01-30T10:09:53;11.17;;;6.47;;
20093;SDS011;10206;48.012;10.030;2024-01-30T10:12:21;13.40;;;8.87;;
20093;SDS011;10206;48.012;10.030;2024-01-30T10:14:48;11.43;;;8.27;;
20093;SDS011;10206;48.012;10.030;2024-01-30T10:17:14;20.40;;;15.03;;
20093;SDS011;10206;48.012;10.030;2024-01-30T10:19:40;13.23;;;9.37;;
20093;SDS011;10206;48.012;10.030;2024-01-30T10:22:07;26.70;;;17.47;;
20093;SDS011;10206;48.012;10.030;2024-01-30T10:24:34;10.53;;;8.30;;
20093;SDS011;10206;48.012;10.030;2024-01-30T10:27:00;18.40;;;11.73;;
20093;SDS011;10206;48.012;10.030;2024-01-30T10:29:27;12.33;;;9.17;;
20093;SDS011;10206;48.012;10.030;2024-01-30T10:32:03;15.17;;;9.67;;
20093;SDS011;10206;48.012;10.030;2024-01-30T10:34:30;10.90;;;7.97;;
20093;SDS011;10206;48.012;10.030;2024-01-30T10:37:06;13.17;;;9.47;;
20093;SDS011;10206;48.012;10.030;2024-01-30T10:39:43;15.73;;;10.47;;
20093;SDS011;10206;48.012;10.030;2024-01-30T10:42:13;12.77;;;8.60;;
20093;SDS011;10206;48.012;10.030;2024-01-30T10:44:59;36.77;;;19.27;;
20093;SDS011;10206;48.012;10.030;2024-01-30T10:47:34;13.30;;;8.90;;
20093;SDS011;10206;48.012;10.030;2024-01-30T10:50:01;12.53;;;8.03;;
20093;SDS011;10206;48.012;10.030;2024-01-30T10:52:31;14.20;;;9.70;;
20093;SDS011;10206;48.012;10.030;2024-01-30T10:54:58;15.93;;;11.47;;
20093;SDS011;10206;48.012;10.030;2024-01-30T10:57:27;13.73;;;8.90;;
20093;SDS011;10206;48.012;10.030;2024-01-30T10:59:55;14.67;;;9.77;;
20093;SDS011;10206;48.012;10.030;2024-01-30T11:02:22;13.63;;;9.60;;
20093;SDS011;10206;48.012;10.030;2024-01-30T11:04:49;14.67;;;9.17;;
20093;SDS011;10206;48.012;10.030;2024-01-30T11:07:29;12.23;;;9.00;;
20093;SDS011;10206;48.012;10.030;2024-01-30T11:10:04;17.13;;;9.33;;
20093;SDS011;10206;48.012;10.030;2024-01-30T11:12:37;15.40;;;8.60;;
20093;SDS011;10206;48.012;10.030;2024-01-30T11:15:09;13.17;;;8.27;;
20093;SDS011;10206;48.012;10.030;2024-01-30T11:17:39;11.63;;;8.40;;
20093;SDS011;10206;48.012;10.030;2024-01-30T11:20:22;14.43;;;8.67;;
20093;SDS011;10206;48.012;10.030;2024-01-30T11:22:53;11.10;;;7.73;;
20093;SDS011;10206;48.012;10.030;2024-01-30T11:25:21;11.20;;;7.83;;
20093;SDS011;10206;48.012;10.030;2024-01-30T11:27:49;11.50;;;8.03;;
20093;SDS011;10206;48.012;10.030;2024-01-30T11:30:22;11.33;;;8.03;;
20093;SDS011;10206;48.012;10.030;2024-01-30T11:35:35;11.73;;;7.60;;
20093;SDS011;10206;48.012;10.030;2024-01-30T11:38:02;11.43;;;7.73;;
20093;SDS011;10206;48.012;10.030;2024-01-30T11:40:29;11.13;;;7.00;;
20093;SDS011;10206;48.012;10.030;2024-01-30T11:42:56;10.20;;;6.63;;
20093;SDS011;10206;48.012;10.030;2024-01-30T11:45:24;8.57;;;6.17;;
20093;SDS011;10206;48.012;10.030;2024-01-30T11:47:51;9.40;;;6.23;;
20093;SDS011;10206;48.012;10.030;2024-01-30T11:50:18;9.43;;;6.37;;
20093;SDS011;10206;48.012;10.030;2024-01-30T11:52:44;9.97;;;6.63;;
20093;SDS011;10206;48.012;10.030;2024-01-30T11:55:10;11.67;;;7.23;;
20093;SDS011;10206;48.012;10.030;2024-01-30T11:57:38;9.73;;;6.97;;
20093;SDS011;10206;48.012;10.030;2024-01-30T12:00:04;11.07;;;7.27;;
20093;SDS011;10206;48.012;10.030;2024-01-30T12:02:38;10.33;;;7.20;;
20093;SDS011;10206;48.012;10.030;2024-01-30T12:05:04;10.23;;;7.57;;
20093;SDS011;10206;48.012;10.030;2024-01-30T12:07:31;11.27;;;7.50;;
20093;SDS011;10206;48.012;10.030;2024-01-30T12:09:58;10.07;;;6.90;;
20093;SDS011;10206;48.012;10.030;2024-01-30T12:12:27;10.87;;;7.60;;
20093;SDS011;10206;48.012;10.030;2024-01-30T12:14:54;12.03;;;8.50;;
20093;SDS011;10206;48.012;10.030;2024-01-30T12:17:39;10.37;;;7.50;;
20093;SDS011;10206;48.012;10.030;2024-01-30T12:20:05;11.07;;;7.77;;
20093;SDS011;10206;48.012;10.030;2024-01-30T12:22:46;11.10;;;8.13;;
20093;SDS011;10206;48.012;10.030;2024-01-30T12:25:17;9.60;;;7.80;;
20093;SDS011;10206;48.012;10.030;2024-01-30T12:27:46;12.03;;;8.00;;
20093;SDS011;10206;48.012;10.030;2024-01-30T12:30:17;14.47;;;8.20;;
20093;SDS011;10206;48.012;10.030;2024-01-30T12:32:45;12.03;;;8.33;;
20093;SDS011;10206;48.012;10.030;2024-01-30T12:35:16;12.73;;;8.63;;
20093;SDS011;10206;48.012;10.030;2024-01-30T12:37:44;13.10;;;9.00;;
20093;SDS011;10206;48.012;10.030;2024-01-30T12:40:11;15.67;;;9.20;;
20093;SDS011;10206;48.012;10.030;2024-01-30T12:42:42;13.50;;;8.83;;
20093;SDS011;10206;48.012;10.030;2024-01-30T12:45:11;11.97;;;8.93;;
20093;SDS011;10206;48.012;10.030;2024-01-30T12:47:39;13.70;;;9.87;;
20093;SDS011;10206;48.012;10.030;2024-01-30T12:50:06;17.80;;;10.17;;
20093;SDS011;10206;48.012;10.030;2024-01-30T12:52:32;16.13;;;9.93;;
20093;SDS011;10206;48.012;10.030;2024-01-30T12:55:00;14.67;;;9.83;;
20093;SDS011;10206;48.012;10.030;2024-01-30T12:57:26;12.57;;;9.40;;
20093;SDS011;10206;48.012;10.030;2024-01-30T12:59:52;13.93;;;10.03;;
20093;SDS011;10206;48.012;10.030;2024-01-30T13:02:18;11.70;;;9.60;;
20093;SDS011;10206;48.012;10.030;2024-01-30T13:04:44;14.97;;;10.10;;
20093;SDS011;10206;48.012;10.030;2024-01-30T13:07:10;13.27;;;9.13;;
20093;SDS011;10206;48.012;10.030;2024-01-30T13:09:36;13.60;;;9.97;;
20093;SDS011;10206;48.012;10.030;2024-01-30T13:12:03;16.37;;;10.00;;
20093;SDS011;10206;48.012;10.030;2024-01-30T13:14:29;15.30;;;9.80;;
20093;SDS011;10206;48.012;10.030;2024-01-30T13:16:55;13.37;;;10.00;;
20093;SDS011;10206;48.012;10.030;2024-01-30T13:19:21;16.03;;;10.20;;
20093;SDS011;10206;48.012;10.030;2024-01-30T13:21:47;16.30;;;10.33;;
20093;SDS011;10206;48.012;10.030;2024-01-30T13:24:14;13.43;;;9.73;;
20093;SDS011;10206;48.012;10.030;2024-01-30T13:26:40;16.80;;;9.67;;
20093;SDS011;10206;48.012;10.030;2024-01-30T13:29:08;13.80;;;9.80;;
20093;SDS011;10206;48.012;10.030;2024-01-30T13:31:35;12.57;;;9.87;;
20093;SDS011;10206;48.012;10.030;2024-01-30T13:34:01;13.00;;;9.60;;
20093;SDS011;10206;48.012;10.030;2024-01-30T13:36:27;14.47;;;9.70;;
20093;SDS011;10206;48.012;10.030;2024-01-30T13:38:53;14.13;;;9.33;;
20093;SDS011;10206;48.012;10.030;2024-01-30T13:41:19;12.10;;;8.60;;
20093;SDS011;10206;48.012;10.030;2024-01-30T13:43:46;13.50;;;9.27;;
20093;SDS011;10206;48.012;10.030;2024-01-30T13:46:12;14.70;;;9.40;;
20093;SDS011;10206;48.012;10.030;2024-01-30T13:48:38;13.67;;;10.03;;
20093;SDS011;10206;48.012;10.030;2024-01-30T13:51:04;13.97;;;8.73;;
20093;SDS011;10206;48.012;10.030;2024-01-30T13:53:31;13.07;;;9.63;;
20093;SDS011;10206;48.012;10.030;2024-01-30T13:55:57;16.10;;;9.47;;
20093;SDS011;10206;48.012;10.030;2024-01-30T13:58:23;12.47;;;8.83;;
20093;SDS011;10206;48.012;10.030;2024-01-30T14:00:49;10.83;;;8.47;;
20093;SDS011;10206;48.012;10.030;2024-01-30T14:03:15;12.57;;;8.30;;
20093;SDS011;10206;48.012;10.030;2024-01-30T14:05:41;12.17;;;8.47;;
20093;SDS011;10206;48.012;10.030;2024-01-30T14:08:08;11.63;;;8.37;;
20093;SDS011;10206;48.012;10.030;2024-01-30T14:10:35;13.43;;;9.13;;
20093;SDS011;10206;48.012;10.030;2024-01-30T14:13:01;17.57;;;10.17;;
20093;SDS011;10206;48.012;10.030;2024-01-30T14:15:27;17.93;;;10.80;;
20093;SDS011;10206;48.012;10.030;2024-01-30T14:17:53;20.80;;;12.93;;
20093;SDS011;10206;48.012;10.030;2024-01-30T14:20:19;17.50;;;11.37;;
20093;SDS011;10206;48.012;10.030;2024-01-30T14:22:46;17.37;;;11.40;;
20093;SDS011;10206;48.012;10.030;2024-01-30T14:25:12;24.43;;;14.20;;